createdAt,value
2022-10-23T00:02:21.589Z,7.93
2022-10-23T00:07:23.151Z,7.86
2022-10-23T00:12:24.694Z,7.83
2022-10-23T00:17:26.228Z,7.93
2022-10-23T00:22:27.780Z,7.95
2022-10-23T00:27:29.324Z,8.07
2022-10-23T00:37:37.401Z,8.30
2022-10-23T00:42:39.180Z,8.34
2022-10-23T00:47:40.921Z,8.39
2022-10-23T00:52:48.107Z,8.35
2022-10-23T00:57:51.275Z,8.25
2022-10-23T01:02:54.530Z,8.14
2022-10-23T01:08:29.428Z,8.05
2022-10-23T01:13:44.744Z,7.96
2022-10-23T01:18:58.657Z,7.90
2022-10-23T01:24:27.321Z,7.86
2022-10-23T01:29:39.765Z,7.85
2022-10-23T01:34:49.641Z,7.85
2022-10-23T01:39:55.583Z,7.78
2022-10-23T01:45:01.028Z,7.74
2022-10-23T01:50:12.577Z,7.74
2022-10-23T01:55:20.799Z,7.71
2022-10-23T02:00:22.458Z,7.72
2022-10-23T02:05:29.728Z,7.72
2022-10-23T02:10:54.818Z,7.67
2022-10-23T02:16:23.105Z,7.68
2022-10-23T02:21:34.857Z,7.69
2022-10-23T02:26:42.040Z,7.74
2022-10-23T02:31:43.821Z,7.83
2022-10-23T02:36:45.413Z,7.85
2022-10-23T02:41:54.276Z,7.88
2022-10-23T02:47:13.810Z,7.93
2022-10-23T02:52:51.812Z,7.99
2022-10-23T02:58:05.380Z,7.98
2022-10-23T03:03:17.636Z,7.99
2022-10-23T03:08:19.463Z,8.01
2022-10-23T03:13:21.032Z,8.05
2022-10-23T03:18:22.700Z,8.14
2022-10-23T03:23:25.671Z,8.13
2022-10-23T03:28:27.324Z,8.18
2022-10-23T03:33:30.373Z,8.29
2022-10-23T03:38:39.680Z,8.30
2022-10-23T03:43:41.400Z,8.14
2022-10-23T03:48:43.299Z,8.17
2022-10-23T03:53:45.509Z,8.24
2022-10-23T03:58:47.737Z,8.28
2022-10-23T04:03:49.324Z,8.27
2022-10-23T04:08:50.947Z,8.28
2022-10-23T04:13:52.723Z,8.56
2022-10-23T04:18:54.346Z,8.80
2022-10-23T04:23:55.923Z,8.83
2022-10-23T04:28:57.821Z,8.89
2022-10-23T04:33:59.443Z,8.95
2022-10-23T04:39:05.469Z,8.98
2022-10-23T04:44:08.101Z,9.09
2022-10-23T04:49:13.057Z,9.17
2022-10-23T04:54:39.542Z,9.26
2022-10-23T04:59:59.858Z,9.21
2022-10-23T05:05:01.702Z,9.05
2022-10-23T05:10:25.923Z,8.81
2022-10-23T05:20:48.316Z,8.61
2022-10-23T05:25:49.872Z,8.61
2022-10-23T05:30:52.919Z,8.59
2022-10-23T05:35:59.234Z,8.50
2022-10-23T05:41:01.319Z,8.32
2022-10-23T05:46:06.386Z,8.16
2022-10-23T05:51:30.750Z,8.08
2022-10-23T05:56:56.605Z,8.06
2022-10-23T06:02:06.700Z,7.98
2022-10-23T06:07:35.870Z,7.92
2022-10-23T06:12:40.177Z,7.88
2022-10-23T06:17:43.567Z,7.84
2022-10-23T06:22:45.634Z,7.90
2022-10-23T06:28:06.164Z,8.03
2022-10-23T06:33:08.070Z,8.16
2022-10-23T06:38:10.624Z,8.26
2022-10-23T06:43:17.789Z,8.42
2022-10-23T06:48:33.953Z,8.64
2022-10-23T06:53:39.240Z,8.78
2022-10-23T06:58:49.641Z,8.87
2022-10-23T07:03:51.212Z,8.98
2022-10-23T07:08:59.575Z,9.16
2022-10-23T07:14:21.387Z,9.47
2022-10-23T07:19:23.039Z,9.76
2022-10-23T07:24:36.952Z,9.97
2022-10-23T07:29:43.249Z,10.16
2022-10-23T07:34:45.423Z,10.41
2022-10-23T07:39:57.773Z,10.66
2022-10-23T07:45:00.025Z,10.77
2022-10-23T07:50:04.274Z,10.88
2022-10-23T07:55:06.528Z,11.00
2022-10-23T08:00:11.520Z,11.10
2022-10-23T08:05:19.349Z,11.26
2022-10-23T08:10:27.564Z,11.46
2022-10-23T08:15:29.202Z,11.74
2022-10-23T08:20:42.910Z,12.00
2022-10-23T08:25:45.601Z,12.30
2022-10-23T08:30:48.358Z,12.57
2022-10-23T08:35:50.431Z,12.86
2022-10-23T08:41:01.568Z,13.22
2022-10-23T08:46:34.687Z,13.58
2022-10-23T08:52:02.449Z,13.99
2022-10-23T08:57:13.882Z,14.28
2022-10-23T09:02:26.674Z,14.60
2022-10-23T09:07:53.914Z,14.77
2022-10-23T09:13:02.555Z,14.98
2022-10-23T09:18:16.126Z,14.97
2022-10-23T09:23:20.916Z,14.95
2022-10-23T09:28:32.176Z,15.01
2022-10-23T09:33:34.725Z,15.22
2022-10-23T09:38:37.677Z,15.50
2022-10-23T09:43:39.515Z,15.78
2022-10-23T09:48:42.603Z,16.02
2022-10-23T09:53:53.892Z,16.33
2022-10-23T09:59:02.026Z,16.54
2022-10-23T10:04:03.804Z,16.71
2022-10-23T10:09:12.359Z,16.83
2022-10-23T10:14:41.759Z,16.84
2022-10-23T10:20:11.159Z,17.00
2022-10-23T10:25:30.977Z,17.06
2022-10-23T10:30:49.324Z,17.30
2022-10-23T10:36:09.312Z,17.39
2022-10-23T10:41:20.075Z,17.63
2022-10-23T10:46:21.554Z,17.97
2022-10-23T10:51:37.948Z,18.47
2022-10-23T10:56:42.333Z,18.88
2022-10-23T11:02:05.876Z,19.08
2022-10-23T11:07:12.016Z,19.05
2022-10-23T11:12:20.498Z,18.95
2022-10-23T11:17:37.872Z,18.93
2022-10-23T11:23:08.780Z,19.17
2022-10-23T11:28:37.665Z,19.19
2022-10-23T11:34:07.540Z,19.19
2022-10-23T11:39:21.367Z,19.09
2022-10-23T11:44:46.737Z,18.75
2022-10-23T11:49:50.464Z,18.53
2022-10-23T11:55:02.469Z,18.36
2022-10-23T12:00:19.871Z,18.32
2022-10-23T12:05:34.790Z,18.32
2022-10-23T12:10:45.333Z,18.45
2022-10-23T12:15:56.060Z,18.70
2022-10-23T12:21:01.907Z,18.99
2022-10-23T12:26:19.199Z,19.10
2022-10-23T12:31:31.423Z,19.18
2022-10-23T12:37:10.632Z,19.26
2022-10-23T12:42:25.038Z,19.29
2022-10-23T12:47:26.926Z,19.37
2022-10-23T12:52:28.500Z,19.43
2022-10-23T12:57:30.316Z,19.42
2022-10-23T13:02:32.581Z,19.42
2022-10-23T13:07:38.153Z,19.43
2022-10-23T13:12:47.702Z,19.47
2022-10-23T13:17:58.141Z,19.37
2022-10-23T13:23:16.817Z,19.30
2022-10-23T13:28:21.639Z,19.34
2022-10-23T13:33:24.707Z,19.45
2022-10-23T13:38:35.308Z,19.77
2022-10-23T13:43:36.935Z,20.17
2022-10-23T13:48:38.445Z,20.23
2022-10-23T13:53:40.158Z,20.23
2022-10-23T13:58:42.357Z,20.23
2022-10-23T14:03:43.886Z,19.97
2022-10-23T14:08:45.976Z,19.69
2022-10-23T14:13:48.144Z,19.56
2022-10-23T14:18:49.784Z,19.59
2022-10-23T14:23:52.800Z,19.64
2022-10-23T14:28:56.050Z,19.65
2022-10-23T14:34:00.744Z,19.67
2022-10-23T14:39:02.334Z,19.75
2022-10-23T14:44:03.901Z,19.75
2022-10-23T14:49:06.077Z,19.60
2022-10-23T14:54:08.009Z,19.51
2022-10-23T14:59:10.754Z,19.37
2022-10-23T15:04:14.356Z,19.25
2022-10-23T15:09:16.500Z,19.17
2022-10-23T15:14:18.037Z,19.03
2022-10-23T15:19:24.096Z,18.89
2022-10-23T15:24:26.609Z,18.80
2022-10-23T15:29:28.150Z,18.91
2022-10-23T15:34:30.195Z,18.76
2022-10-23T15:39:35.676Z,18.46
2022-10-23T15:44:39.963Z,18.09
2022-10-23T15:49:41.980Z,17.75
2022-10-23T15:54:43.609Z,17.52
2022-10-23T15:59:45.152Z,17.35
2022-10-23T16:04:46.703Z,17.20
2022-10-23T16:09:48.282Z,17.08
2022-10-23T16:14:51.940Z,16.91
2022-10-23T16:19:53.454Z,16.85
2022-10-23T16:24:55.091Z,16.73
2022-10-23T16:29:56.633Z,16.61
2022-10-23T16:34:58.175Z,16.48
2022-10-23T16:40:00.970Z,16.38
2022-10-23T16:45:21.182Z,16.33
2022-10-23T16:50:23.211Z,16.23
2022-10-23T16:55:24.761Z,16.13
2022-10-23T17:00:34.700Z,16.08
2022-10-23T17:05:36.136Z,16.06
2022-10-23T17:10:37.715Z,16.00
2022-10-23T17:20:41.708Z,15.79
2022-10-23T17:25:43.216Z,15.75
2022-10-23T17:30:44.775Z,15.56
2022-10-23T17:35:46.449Z,15.43
2022-10-23T17:40:48.369Z,15.27
2022-10-23T17:45:53.870Z,15.02
2022-10-23T17:51:19.353Z,14.99
2022-10-23T17:56:28.401Z,14.96
2022-10-23T18:01:30.256Z,14.96
2022-10-23T18:06:34.822Z,14.92
2022-10-23T18:11:43.833Z,14.91
2022-10-23T18:16:49.871Z,14.90
2022-10-23T18:21:51.517Z,14.88
2022-10-23T18:26:53.030Z,14.87
2022-10-23T18:31:54.545Z,14.88
2022-10-23T18:36:56.443Z,14.87
2022-10-23T18:41:58.449Z,14.81
2022-10-23T18:47:00.423Z,14.75
2022-10-23T18:52:06.503Z,14.75
2022-10-23T18:57:08.132Z,14.64
2022-10-23T19:02:10.701Z,14.56
2022-10-23T19:07:12.381Z,14.55
2022-10-23T19:17:32.164Z,14.53
2022-10-23T19:22:35.900Z,14.47
2022-10-23T19:27:39.701Z,14.39
2022-10-23T19:32:42.296Z,14.29
2022-10-23T19:37:44.259Z,14.23
2022-10-23T19:42:45.917Z,14.21
2022-10-23T19:47:47.941Z,14.17
2022-10-23T19:52:49.491Z,14.11
2022-10-23T19:57:51.104Z,14.06
2022-10-23T20:02:55.179Z,14.07
2022-10-23T20:07:57.525Z,13.96
2022-10-23T20:13:18.301Z,13.97
2022-10-23T20:18:20.695Z,13.95
2022-10-23T20:23:26.057Z,13.90
2022-10-23T20:28:27.578Z,13.93
2022-10-23T20:33:29.111Z,13.89
2022-10-23T20:38:30.921Z,13.86
2022-10-23T20:43:33.802Z,13.87
2022-10-23T20:48:40.625Z,13.85
2022-10-23T20:53:43.667Z,13.83
2022-10-23T20:58:46.319Z,13.78
2022-10-23T21:03:52.019Z,13.76
2022-10-23T21:08:58.632Z,13.76
2022-10-23T21:14:00.724Z,13.74
2022-10-23T21:19:04.364Z,13.73
2022-10-23T21:24:08.355Z,13.71
2022-10-23T21:29:18.989Z,13.64
2022-10-23T21:34:21.640Z,13.57
2022-10-23T21:39:23.209Z,13.55
2022-10-23T21:44:24.728Z,13.52
2022-10-23T21:49:26.310Z,13.51
2022-10-23T21:54:27.845Z,13.45
2022-10-23T21:59:31.562Z,13.36
2022-10-23T22:04:34.662Z,13.42
2022-10-23T22:09:36.244Z,13.33
2022-10-23T22:14:39.385Z,13.31
2022-10-23T22:19:41.065Z,13.21
2022-10-23T22:24:42.577Z,13.09
2022-10-23T22:29:44.152Z,13.00
2022-10-23T22:34:52.894Z,12.89
2022-10-23T22:39:55.039Z,12.82
2022-10-23T22:44:56.558Z,12.68
2022-10-23T22:49:58.069Z,12.55
2022-10-23T22:54:59.626Z,12.47
2022-10-23T23:00:01.431Z,12.41
2022-10-23T23:05:03.288Z,12.30
2022-10-23T23:10:05.197Z,12.15
2022-10-23T23:15:07.284Z,12.01
2022-10-23T23:20:09.402Z,12.02
2022-10-23T23:25:11.191Z,11.97
2022-10-23T23:30:12.788Z,11.96
2022-10-23T23:35:14.573Z,12.00
2022-10-23T23:40:16.331Z,12.02
2022-10-23T23:45:17.875Z,12.10
2022-10-23T23:50:19.616Z,12.06
2022-10-23T23:55:21.396Z,12.00
